createdAt,value
2023-05-02T00:01:25.390Z,60.00
2023-05-02T00:03:52.238Z,62.06
2023-05-02T00:06:19.119Z,61.40
2023-05-02T00:08:45.874Z,61.43
2023-05-02T00:11:14.534Z,61.57
2023-05-02T00:13:41.463Z,60.06
2023-05-02T00:16:08.297Z,59.91
2023-05-02T00:18:35.192Z,59.58
2023-05-02T00:21:01.959Z,60.64
2023-05-02T00:23:28.633Z,59.82
2023-05-02T00:25:55.308Z,58.48
2023-05-02T00:28:22.120Z,59.42
2023-05-02T00:30:49.197Z,59.00
2023-05-02T00:33:16.156Z,57.60
2023-05-02T00:35:43.150Z,57.98
2023-05-02T00:38:10.106Z,57.61
2023-05-02T00:40:48.086Z,59.24
2023-05-02T00:43:16.114Z,59.79
2023-05-02T00:45:44.067Z,59.31
2023-05-02T00:48:11.709Z,60.11
2023-05-02T00:50:41.127Z,61.09
2023-05-02T00:53:09.093Z,59.52
2023-05-02T00:55:36.476Z,59.60
2023-05-02T00:58:10.993Z,59.61
2023-05-02T01:00:56.727Z,60.11
2023-05-02T01:03:44.459Z,60.46
2023-05-02T01:06:47.408Z,59.91
2023-05-02T01:09:40.635Z,60.18
2023-05-02T01:12:31.764Z,60.63
2023-05-02T01:15:02.241Z,61.17
2023-05-02T01:17:35.101Z,61.98
2023-05-02T01:20:08.060Z,61.88
2023-05-02T01:22:38.567Z,61.60
2023-05-02T01:25:21.066Z,61.71
2023-05-02T01:28:08.996Z,60.24
2023-05-02T01:30:41.858Z,60.38
2023-05-02T01:33:11.790Z,60.42
2023-05-02T01:35:40.009Z,61.38
2023-05-02T01:38:07.559Z,61.46
2023-05-02T01:40:36.676Z,60.60
2023-05-02T01:43:05.601Z,60.71
2023-05-02T01:45:35.950Z,61.38
2023-05-02T01:48:03.591Z,61.45
2023-05-02T01:50:31.412Z,61.09
2023-05-02T01:52:59.002Z,61.40
2023-05-02T01:55:27.731Z,61.57
2023-05-02T01:57:56.854Z,61.63
2023-05-02T02:00:25.675Z,62.22
2023-05-02T02:02:53.998Z,61.07
2023-05-02T02:05:22.514Z,60.70
2023-05-02T02:07:49.384Z,61.08
2023-05-02T02:10:16.358Z,61.21
2023-05-02T02:12:49.236Z,60.37
2023-05-02T02:15:15.885Z,59.84
2023-05-02T02:17:48.939Z,60.03
2023-05-02T02:20:18.760Z,58.61
2023-05-02T02:22:47.710Z,59.61
2023-05-02T02:25:18.917Z,58.69
2023-05-02T02:27:47.285Z,58.99
2023-05-02T02:30:14.209Z,59.02
2023-05-02T02:32:40.901Z,59.58
2023-05-02T02:35:08.360Z,59.13
2023-05-02T02:37:41.193Z,59.58
2023-05-02T02:40:31.614Z,59.10
2023-05-02T02:43:21.279Z,59.11
2023-05-02T02:46:09.440Z,58.71
2023-05-02T02:48:43.452Z,58.83
2023-05-02T02:51:32.181Z,58.14
2023-05-02T02:54:26.889Z,58.12
2023-05-02T02:57:07.663Z,58.11
2023-05-02T02:59:38.840Z,57.79
2023-05-02T03:02:12.481Z,57.43
2023-05-02T03:04:42.278Z,57.32
2023-05-02T03:07:09.483Z,56.80
2023-05-02T03:09:43.944Z,57.49
2023-05-02T03:12:15.598Z,57.88
2023-05-02T03:14:43.748Z,57.79
2023-05-02T03:17:12.906Z,57.83
2023-05-02T03:19:41.607Z,58.04
2023-05-02T03:22:08.346Z,56.84
2023-05-02T03:24:36.265Z,56.07
2023-05-02T03:27:04.616Z,56.52
2023-05-02T03:29:37.950Z,57.87
2023-05-02T03:32:05.926Z,58.32
2023-05-02T03:34:33.283Z,58.85
2023-05-02T03:37:01.637Z,60.81
2023-05-02T03:39:29.508Z,62.41
2023-05-02T03:41:56.243Z,62.70
2023-05-02T03:44:24.685Z,64.12
2023-05-02T03:46:52.272Z,63.70
2023-05-02T03:49:19.886Z,63.91
2023-05-02T03:51:48.533Z,64.14
2023-05-02T03:54:20.152Z,63.76
2023-05-02T03:56:48.921Z,62.69
2023-05-02T03:59:24.434Z,59.79
2023-05-02T04:01:53.345Z,61.09
2023-05-02T04:04:25.800Z,61.61
2023-05-02T04:06:54.799Z,60.49
2023-05-02T04:09:25.413Z,60.79
2023-05-02T04:12:01.381Z,60.86
2023-05-02T04:14:29.736Z,61.33
2023-05-02T04:16:57.660Z,61.70
2023-05-02T04:19:35.624Z,61.06
2023-05-02T04:22:04.104Z,61.09
2023-05-02T04:24:36.005Z,60.54
2023-05-02T04:27:03.238Z,60.34
2023-05-02T04:29:30.160Z,60.00
2023-05-02T04:31:57.153Z,60.19
2023-05-02T04:34:25.866Z,60.82
2023-05-02T04:36:53.300Z,60.49
2023-05-02T04:39:22.353Z,60.76
2023-05-02T04:42:03.914Z,60.80
2023-05-02T04:44:35.225Z,60.72
2023-05-02T04:47:02.009Z,60.38
2023-05-02T04:49:28.618Z,60.70
2023-05-02T04:51:55.490Z,60.73
2023-05-02T04:54:23.664Z,60.67
2023-05-02T04:56:50.705Z,60.41
2023-05-02T04:59:18.584Z,60.09
2023-05-02T05:01:45.732Z,60.44
2023-05-02T05:04:12.636Z,60.05
2023-05-02T05:06:39.432Z,60.45
2023-05-02T05:09:06.462Z,60.98
2023-05-02T05:11:35.131Z,60.71
2023-05-02T05:14:04.289Z,60.53
2023-05-02T05:16:33.504Z,59.85
2023-05-02T05:19:02.313Z,59.99
2023-05-02T05:21:29.065Z,60.27
2023-05-02T05:23:59.088Z,57.63
2023-05-02T05:26:31.570Z,58.34
2023-05-02T05:28:59.390Z,58.59
2023-05-02T05:31:31.037Z,58.88
2023-05-02T05:34:02.423Z,58.52
2023-05-02T05:36:31.516Z,57.76
2023-05-02T05:38:58.758Z,58.53
2023-05-02T05:41:25.604Z,59.06
2023-05-02T05:43:59.455Z,56.89
2023-05-02T05:46:27.718Z,57.21
2023-05-02T05:48:55.088Z,57.47
2023-05-02T05:51:21.811Z,56.73
2023-05-02T05:53:49.382Z,56.56
2023-05-02T05:56:16.605Z,56.14
2023-05-02T05:58:54.930Z,55.83
2023-05-02T06:01:21.877Z,54.03
2023-05-02T06:03:48.732Z,55.83
2023-05-02T06:06:18.215Z,55.88
2023-05-02T06:08:44.976Z,56.37
2023-05-02T06:11:15.644Z,52.41
2023-05-02T06:13:46.372Z,55.05
2023-05-02T06:16:13.577Z,54.98
2023-05-02T06:18:40.640Z,56.06
2023-05-02T06:21:07.702Z,54.99
2023-05-02T06:23:35.872Z,54.72
2023-05-02T06:26:03.717Z,53.57
2023-05-02T06:28:31.060Z,54.59
2023-05-02T06:30:58.825Z,55.14
2023-05-02T06:33:27.942Z,54.38
2023-05-02T06:35:54.708Z,54.43
2023-05-02T06:38:22.154Z,54.22
2023-05-02T06:40:49.389Z,52.19
2023-05-02T06:43:16.249Z,53.18
2023-05-02T06:45:43.144Z,52.57
2023-05-02T06:48:10.448Z,53.45
2023-05-02T06:50:37.437Z,51.14
2023-05-02T06:53:07.010Z,48.98
2023-05-02T06:55:33.766Z,51.64
2023-05-02T06:58:00.751Z,52.31
2023-05-02T07:00:27.389Z,52.81
2023-05-02T07:02:54.055Z,52.53
2023-05-02T07:05:20.871Z,54.09
2023-05-02T07:07:47.621Z,52.87
2023-05-02T07:10:14.277Z,51.08
2023-05-02T07:12:41.115Z,53.00
2023-05-02T07:15:08.311Z,53.19
2023-05-02T07:17:35.074Z,53.31
2023-05-02T07:20:02.787Z,53.38
2023-05-02T07:22:29.975Z,51.95
2023-05-02T07:25:01.913Z,52.69
2023-05-02T07:27:28.890Z,52.22
2023-05-02T07:29:55.510Z,51.34
2023-05-02T07:32:22.688Z,52.37
2023-05-02T07:34:49.436Z,52.30
2023-05-02T07:37:16.383Z,52.32
2023-05-02T07:39:43.145Z,52.14
2023-05-02T07:42:10.059Z,51.11
2023-05-02T07:44:36.932Z,51.02
2023-05-02T07:47:03.657Z,50.61
2023-05-02T07:49:31.383Z,52.12
2023-05-02T07:51:58.456Z,49.43
2023-05-02T07:54:26.635Z,51.82
2023-05-02T07:56:53.345Z,51.59
2023-05-02T07:59:20.007Z,51.96
2023-05-02T08:01:47.021Z,52.81
2023-05-02T08:04:13.779Z,51.99
2023-05-02T08:06:41.093Z,50.82
2023-05-02T08:09:09.377Z,50.61
2023-05-02T08:11:36.136Z,51.62
2023-05-02T08:14:02.998Z,51.25
2023-05-02T08:16:29.874Z,50.80
2023-05-02T08:18:56.815Z,51.46
2023-05-02T08:21:23.596Z,51.18
2023-05-02T08:23:50.205Z,50.53
2023-05-02T08:26:19.069Z,50.15
2023-05-02T08:28:45.893Z,46.41
2023-05-02T08:31:12.701Z,47.27
2023-05-02T08:33:39.585Z,44.59
2023-05-02T08:36:16.777Z,45.48
2023-05-02T08:38:44.879Z,46.00
2023-05-02T08:41:12.499Z,43.93
2023-05-02T08:43:40.170Z,44.56
2023-05-02T08:46:10.775Z,45.53
2023-05-02T08:48:38.646Z,46.23
2023-05-02T08:51:09.712Z,44.94
2023-05-02T08:53:37.557Z,44.81
2023-05-02T08:56:04.787Z,43.56
2023-05-02T08:58:31.534Z,45.18
2023-05-02T09:01:03.088Z,43.36
2023-05-02T09:03:34.685Z,45.34
2023-05-02T09:06:10.145Z,44.43
2023-05-02T09:08:37.471Z,43.14
2023-05-02T09:11:05.054Z,42.44
2023-05-02T09:13:32.746Z,43.83
2023-05-02T09:16:18.255Z,44.30
2023-05-02T09:18:47.582Z,45.83
2023-05-02T09:21:21.149Z,44.05
2023-05-02T09:23:50.541Z,44.03
2023-05-02T09:26:31.085Z,44.44
2023-05-02T09:29:01.267Z,45.10
2023-05-02T09:34:08.707Z,42.62
2023-05-02T09:36:42.395Z,42.21
2023-05-02T09:39:14.453Z,41.95
2023-05-02T09:41:48.268Z,42.08
2023-05-02T09:44:18.520Z,43.09
2023-05-02T09:46:52.931Z,40.55
2023-05-02T09:49:20.562Z,42.43
2023-05-02T09:51:48.261Z,41.80
2023-05-02T09:54:34.163Z,43.06
2023-05-02T09:57:02.002Z,43.33
2023-05-02T09:59:28.613Z,43.27
2023-05-02T10:02:00.243Z,41.76
2023-05-02T10:04:28.597Z,41.30
2023-05-02T10:06:56.224Z,41.97
2023-05-02T10:09:23.454Z,42.11
2023-05-02T10:11:54.527Z,42.23
2023-05-02T10:14:25.158Z,41.97
2023-05-02T10:17:01.695Z,43.10
2023-05-02T10:19:45.398Z,43.25
2023-05-02T10:22:13.283Z,44.03
2023-05-02T10:24:41.582Z,42.88
2023-05-02T10:27:08.503Z,42.77
2023-05-02T10:29:36.658Z,42.32
2023-05-02T10:32:04.726Z,40.79
2023-05-02T10:34:33.294Z,41.98
2023-05-02T10:37:02.258Z,41.55
2023-05-02T10:39:30.289Z,39.42
2023-05-02T10:41:59.179Z,40.42
2023-05-02T10:44:36.144Z,40.44
2023-05-02T10:47:22.021Z,40.97
2023-05-02T10:49:57.222Z,41.11
2023-05-02T10:52:31.891Z,37.67
2023-05-02T10:55:18.797Z,40.60
2023-05-02T10:58:00.792Z,39.89
2023-05-02T11:00:29.851Z,38.94
2023-05-02T11:02:56.810Z,38.60
2023-05-02T11:05:24.748Z,39.88
2023-05-02T11:08:20.076Z,39.43
2023-05-02T11:10:48.031Z,36.98
2023-05-02T11:13:14.966Z,37.10
2023-05-02T11:15:41.556Z,38.70
2023-05-02T11:18:09.610Z,40.75
2023-05-02T11:20:45.870Z,41.11
2023-05-02T11:23:15.744Z,37.54
2023-05-02T11:25:46.896Z,38.13
2023-05-02T11:28:38.583Z,36.94
2023-05-02T11:31:07.014Z,37.64
2023-05-02T11:33:33.827Z,37.57
2023-05-02T11:36:01.189Z,38.90
2023-05-02T11:38:38.881Z,38.81
2023-05-02T11:41:06.161Z,37.53
2023-05-02T11:43:33.039Z,35.93
2023-05-02T11:46:02.161Z,35.69
2023-05-02T11:48:30.874Z,36.71
2023-05-02T11:51:02.346Z,38.14
2023-05-02T11:53:30.040Z,37.47
2023-05-02T11:55:58.944Z,36.26
2023-05-02T11:58:30.079Z,37.15
2023-05-02T12:00:57.370Z,37.36
2023-05-02T12:03:27.974Z,38.92
2023-05-02T12:05:55.848Z,36.53
2023-05-02T12:08:29.858Z,37.38
2023-05-02T12:10:57.443Z,38.38
2023-05-02T12:13:26.438Z,37.20
2023-05-02T12:15:54.582Z,36.16
2023-05-02T12:18:24.001Z,35.75
2023-05-02T12:20:52.595Z,36.72
2023-05-02T12:23:24.711Z,35.53
2023-05-02T12:25:51.399Z,33.34
2023-05-02T12:28:24.084Z,35.01
2023-05-02T12:30:52.180Z,35.23
2023-05-02T12:33:19.388Z,35.92
2023-05-02T12:35:47.503Z,35.89
2023-05-02T12:38:16.018Z,36.72
2023-05-02T12:40:50.098Z,35.67
2023-05-02T12:43:17.474Z,36.96
2023-05-02T12:45:44.220Z,36.62
2023-05-02T12:48:27.794Z,35.40
2023-05-02T12:50:55.429Z,37.49
2023-05-02T12:53:42.101Z,36.91
2023-05-02T12:56:08.890Z,34.71
2023-05-02T12:58:46.954Z,35.67
2023-05-02T13:01:15.185Z,34.56
2023-05-02T13:03:43.225Z,35.34
2023-05-02T13:06:10.227Z,35.50
2023-05-02T13:08:36.928Z,36.28
2023-05-02T13:11:04.285Z,34.15
2023-05-02T13:13:32.576Z,34.54
2023-05-02T13:15:59.639Z,36.09
2023-05-02T13:18:28.040Z,34.47
2023-05-02T13:20:55.116Z,34.41
2023-05-02T13:23:21.862Z,35.10
2023-05-02T13:25:48.580Z,34.72
2023-05-02T13:28:15.392Z,33.14
2023-05-02T13:30:42.289Z,31.06
2023-05-02T13:33:09.225Z,32.71
2023-05-02T13:35:36.434Z,32.96
2023-05-02T13:38:03.814Z,33.23
2023-05-02T13:40:30.615Z,34.25
2023-05-02T13:42:57.558Z,33.56
2023-05-02T13:45:24.270Z,32.45
2023-05-02T13:47:51.014Z,33.92
2023-05-02T13:50:17.860Z,34.73
2023-05-02T13:52:46.994Z,34.74
2023-05-02T13:55:15.180Z,33.49
2023-05-02T13:57:41.826Z,34.77
2023-05-02T14:00:09.885Z,34.43
2023-05-02T14:02:37.514Z,36.17
2023-05-02T14:05:04.911Z,36.45
2023-05-02T14:07:32.585Z,36.64
2023-05-02T14:09:59.499Z,36.72
2023-05-02T14:12:26.437Z,34.90
2023-05-02T14:14:53.105Z,36.77
2023-05-02T14:17:19.880Z,34.84
2023-05-02T14:19:46.749Z,33.17
2023-05-02T14:22:13.401Z,35.43
2023-05-02T14:24:40.200Z,34.73
2023-05-02T14:27:07.762Z,35.98
2023-05-02T14:29:34.471Z,36.56
2023-05-02T14:32:01.551Z,36.91
2023-05-02T14:34:37.859Z,36.74
2023-05-02T14:37:04.761Z,36.79
2023-05-02T14:39:31.478Z,39.07
2023-05-02T14:42:09.685Z,37.54
2023-05-02T14:44:37.672Z,36.52
2023-05-02T14:47:04.670Z,36.04
2023-05-02T14:49:31.421Z,36.68
2023-05-02T14:51:58.651Z,36.44
2023-05-02T14:54:31.621Z,37.25
2023-05-02T14:56:59.799Z,36.62
2023-05-02T14:59:28.816Z,37.20
2023-05-02T15:01:55.848Z,35.85
2023-05-02T15:04:23.996Z,35.47
2023-05-02T15:06:54.076Z,36.76
2023-05-02T15:09:21.092Z,35.80
2023-05-02T15:11:48.300Z,38.19
2023-05-02T15:14:15.004Z,38.70
2023-05-02T15:16:42.063Z,39.47
2023-05-02T15:19:08.790Z,39.54
2023-05-02T15:21:35.402Z,42.00
2023-05-02T15:24:02.635Z,38.30
2023-05-02T15:26:30.090Z,41.85
2023-05-02T15:28:56.840Z,40.20
2023-05-02T15:31:23.723Z,37.88
2023-05-02T15:33:51.430Z,38.34
2023-05-02T15:36:18.087Z,37.33
2023-05-02T15:38:44.845Z,38.41
2023-05-02T15:41:11.673Z,38.41
2023-05-02T15:43:38.569Z,39.88
2023-05-02T15:46:05.469Z,37.48
2023-05-02T15:48:33.444Z,35.02
2023-05-02T15:51:00.434Z,35.62
2023-05-02T15:53:27.264Z,35.78
2023-05-02T15:55:54.102Z,37.94
2023-05-02T15:58:21.110Z,36.67
2023-05-02T16:00:47.858Z,35.65
2023-05-02T16:03:15.729Z,34.96
2023-05-02T16:05:42.481Z,35.14
2023-05-02T16:08:09.287Z,34.60
2023-05-02T16:10:36.671Z,34.95
2023-05-02T16:13:03.511Z,36.71
2023-05-02T16:15:30.528Z,36.06
2023-05-02T16:17:57.580Z,33.80
2023-05-02T16:20:24.293Z,34.03
2023-05-02T16:22:51.427Z,34.84
2023-05-02T16:25:19.008Z,35.19
2023-05-02T16:27:45.744Z,36.14
2023-05-02T16:30:12.856Z,35.91
2023-05-02T16:32:39.844Z,35.00
2023-05-02T16:35:08.276Z,34.29
2023-05-02T16:37:35.775Z,34.84
2023-05-02T16:40:05.417Z,35.68
2023-05-02T16:42:32.839Z,35.85
2023-05-02T16:44:59.788Z,39.16
2023-05-02T16:47:27.973Z,40.87
2023-05-02T16:49:59.028Z,41.46
2023-05-02T16:52:26.768Z,41.83
2023-05-02T16:54:54.108Z,44.16
2023-05-02T16:57:21.808Z,43.61
2023-05-02T16:59:52.476Z,43.80
2023-05-02T17:02:23.571Z,44.26
2023-05-02T17:04:50.373Z,44.76
2023-05-02T17:07:17.205Z,44.73
2023-05-02T17:09:44.747Z,45.05
2023-05-02T17:12:12.256Z,45.25
2023-05-02T17:14:41.115Z,45.47
2023-05-02T17:17:08.474Z,44.34
2023-05-02T17:19:35.937Z,45.15
2023-05-02T17:22:04.286Z,44.07
2023-05-02T17:24:31.442Z,44.95
2023-05-02T17:26:58.219Z,45.44
2023-05-02T17:29:25.673Z,46.81
2023-05-02T17:31:52.232Z,46.30
2023-05-02T17:34:18.964Z,45.21
2023-05-02T17:36:46.383Z,45.82
2023-05-02T17:39:13.498Z,44.33
2023-05-02T17:41:40.229Z,44.55
2023-05-02T17:44:07.044Z,43.16
2023-05-02T17:46:33.893Z,43.71
2023-05-02T17:49:01.018Z,43.53
2023-05-02T17:51:28.240Z,44.05
2023-05-02T17:53:55.000Z,44.52
2023-05-02T17:56:21.837Z,42.67
2023-05-02T17:58:48.930Z,42.63
2023-05-02T18:01:17.547Z,43.79
2023-05-02T18:03:44.664Z,43.26
2023-05-02T18:06:18.551Z,43.83
2023-05-02T18:08:45.755Z,42.12
2023-05-02T18:11:19.883Z,41.61
2023-05-02T18:13:46.980Z,43.03
2023-05-02T18:16:14.187Z,43.49
2023-05-02T18:18:41.569Z,43.77
2023-05-02T18:21:09.519Z,44.33
2023-05-02T18:23:36.392Z,43.22
2023-05-02T18:26:03.535Z,41.90
2023-05-02T18:28:30.321Z,44.32
2023-05-02T18:30:57.000Z,42.70
2023-05-02T18:33:23.745Z,43.47
2023-05-02T18:35:50.762Z,43.58
2023-05-02T18:38:17.551Z,43.07
2023-05-02T18:40:44.282Z,42.42
2023-05-02T18:43:11.267Z,41.84
2023-05-02T18:45:37.973Z,42.24
2023-05-02T18:48:04.936Z,42.46
2023-05-02T18:50:31.737Z,41.23
2023-05-02T18:52:58.425Z,42.88
2023-05-02T18:55:25.477Z,40.98
2023-05-02T18:57:52.431Z,41.63
2023-05-02T19:00:20.457Z,42.76
2023-05-02T19:02:47.886Z,41.85
2023-05-02T19:05:15.181Z,42.11
2023-05-02T19:07:42.389Z,41.03
2023-05-02T19:10:11.027Z,41.55
2023-05-02T19:12:38.215Z,42.42
2023-05-02T19:15:06.740Z,42.81
2023-05-02T19:17:33.815Z,41.42
2023-05-02T19:20:00.635Z,42.25
2023-05-02T19:22:27.819Z,42.45
2023-05-02T19:24:55.168Z,43.72
2023-05-02T19:27:21.860Z,42.83
2023-05-02T19:29:48.481Z,42.55
2023-05-02T19:32:15.752Z,44.63
2023-05-02T19:34:42.437Z,44.46
2023-05-02T19:37:09.203Z,45.03
2023-05-02T19:39:35.850Z,44.14
2023-05-02T19:42:03.299Z,44.42
2023-05-02T19:44:30.486Z,46.28
2023-05-02T19:46:57.109Z,47.45
2023-05-02T19:49:23.755Z,48.36
2023-05-02T19:51:50.517Z,48.75
2023-05-02T19:54:17.169Z,49.39
2023-05-02T19:56:44.323Z,49.46
2023-05-02T19:59:11.209Z,49.29
2023-05-02T20:01:37.965Z,49.12
2023-05-02T20:04:04.688Z,48.88
2023-05-02T20:06:32.303Z,48.43
2023-05-02T20:08:59.175Z,49.35
2023-05-02T20:11:26.286Z,49.54
2023-05-02T20:13:54.321Z,49.25
2023-05-02T20:16:21.341Z,49.55
2023-05-02T20:18:48.162Z,48.59
2023-05-02T20:21:14.973Z,48.34
2023-05-02T20:23:43.553Z,48.83
2023-05-02T20:26:10.910Z,48.15
2023-05-02T20:28:38.999Z,48.61
2023-05-02T20:31:08.269Z,49.40
2023-05-02T20:33:44.369Z,48.96
2023-05-02T20:36:13.732Z,48.97
2023-05-02T20:38:42.344Z,47.83
2023-05-02T20:41:12.642Z,47.45
2023-05-02T20:43:41.190Z,47.64
2023-05-02T20:46:12.062Z,48.19
2023-05-02T20:48:39.011Z,46.03
2023-05-02T20:51:05.718Z,47.56
2023-05-02T20:53:32.336Z,45.96
2023-05-02T20:55:58.939Z,47.99
2023-05-02T20:58:26.032Z,47.57
2023-05-02T21:00:52.841Z,47.28
2023-05-02T21:03:20.408Z,47.69
2023-05-02T21:05:59.171Z,48.15
2023-05-02T21:08:28.593Z,48.58
2023-05-02T21:10:55.230Z,48.78
2023-05-02T21:13:22.213Z,49.58
2023-05-02T21:15:48.843Z,49.63
2023-05-02T21:18:15.591Z,48.20
2023-05-02T21:20:42.456Z,48.82
2023-05-02T21:23:12.100Z,48.42
2023-05-02T21:25:38.781Z,49.37
2023-05-02T21:28:06.002Z,49.28
2023-05-02T21:30:32.964Z,49.70
2023-05-02T21:32:59.718Z,49.11
2023-05-02T21:35:27.092Z,48.90
2023-05-02T21:37:53.674Z,49.36
2023-05-02T21:40:20.292Z,51.00
2023-05-02T21:42:46.893Z,49.52
2023-05-02T21:45:13.557Z,49.51
2023-05-02T21:47:40.157Z,49.31
2023-05-02T21:50:07.690Z,49.04
2023-05-02T21:52:34.691Z,48.82
2023-05-02T21:55:01.453Z,49.45
2023-05-02T21:57:29.433Z,49.05
2023-05-02T21:59:56.121Z,50.36
2023-05-02T22:02:23.790Z,50.42
2023-05-02T22:04:50.971Z,48.60
2023-05-02T22:07:17.754Z,48.86
2023-05-02T22:09:44.685Z,50.21
2023-05-02T22:12:11.770Z,49.50
2023-05-02T22:14:45.270Z,50.82
2023-05-02T22:17:13.431Z,51.08
2023-05-02T22:19:40.593Z,51.80
2023-05-02T22:22:07.624Z,51.94
2023-05-02T22:24:34.426Z,52.52
2023-05-02T22:27:01.629Z,51.80
2023-05-02T22:29:29.144Z,52.34
2023-05-02T22:31:56.415Z,52.69
2023-05-02T22:34:23.238Z,53.07
2023-05-02T22:36:49.981Z,52.97
2023-05-02T22:39:16.753Z,52.30
2023-05-02T22:41:43.496Z,52.46
2023-05-02T22:44:11.325Z,52.75
2023-05-02T22:46:38.922Z,52.99
2023-05-02T22:49:09.512Z,52.84
2023-05-02T22:51:38.003Z,52.97
2023-05-02T22:54:06.017Z,52.94
2023-05-02T22:56:32.725Z,53.87
2023-05-02T22:58:59.422Z,52.38
2023-05-02T23:01:27.775Z,51.62
2023-05-02T23:03:54.582Z,52.58
2023-05-02T23:06:21.481Z,51.20
2023-05-02T23:08:48.269Z,52.05
2023-05-02T23:11:15.065Z,52.11
2023-05-02T23:13:41.756Z,51.82
2023-05-02T23:16:08.492Z,52.62
2023-05-02T23:18:35.167Z,52.42
2023-05-02T23:21:03.457Z,52.20
2023-05-02T23:23:30.624Z,51.55
2023-05-02T23:25:57.487Z,52.03
2023-05-02T23:28:24.181Z,52.04
2023-05-02T23:30:51.158Z,51.99
2023-05-02T23:33:17.852Z,51.68
2023-05-02T23:35:44.496Z,51.19
2023-05-02T23:38:11.222Z,51.66
2023-05-02T23:40:37.880Z,51.91
2023-05-02T23:43:05.104Z,52.59
2023-05-02T23:45:31.889Z,52.42
2023-05-02T23:47:58.656Z,52.46
2023-05-02T23:50:25.383Z,52.14
2023-05-02T23:52:52.118Z,52.59
2023-05-02T23:55:18.799Z,51.66
2023-05-02T23:57:45.416Z,51.75
